createdAt,value
2022-07-29T00:00:01.731Z,47.9
2022-07-29T00:07:02.355Z,48.064
2022-07-29T00:14:02.246Z,48.064
2022-07-29T00:21:02.261Z,48.148
2022-07-29T00:28:01.932Z,48.355
2022-07-29T00:35:01.785Z,48.355
2022-07-29T00:42:01.489Z,48.494
2022-07-29T00:49:01.729Z,48.494
2022-07-29T00:56:01.780Z,48.549
2022-07-29T01:00:02.510Z,48.549
2022-07-29T01:07:02.206Z,48.589
2022-07-29T01:14:01.998Z,48.589
2022-07-29T01:21:01.780Z,48.885
2022-07-29T01:28:01.398Z,48.885
2022-07-29T01:35:02.487Z,49.041
2022-07-29T01:42:01.877Z,49.041
2022-07-29T01:49:01.863Z,49.282
2022-07-29T01:56:02.009Z,49.282
2022-07-29T02:00:01.521Z,49.653
2022-07-29T02:07:01.396Z,49.653
2022-07-29T02:14:01.824Z,49.704
2022-07-29T02:21:01.837Z,49.704
2022-07-29T02:28:01.474Z,49.656
2022-07-29T02:35:02.238Z,49.656
2022-07-29T02:42:02.276Z,50.17
2022-07-29T02:49:02.021Z,50.421
2022-07-29T02:56:01.705Z,50.421
2022-07-29T03:00:02.236Z,50.421
2022-07-29T03:07:01.679Z,50.063
2022-07-29T03:14:01.577Z,50.063
2022-07-29T03:21:01.935Z,50.13
2022-07-29T03:28:01.805Z,59.625
2022-07-29T03:35:01.807Z,59.625
2022-07-29T03:42:01.598Z,64.484
2022-07-29T03:49:01.564Z,64.484
2022-07-29T03:56:01.575Z,67.781
2022-07-29T04:00:02.328Z,67.781
2022-07-29T04:07:02.188Z,69.23
2022-07-29T04:14:01.495Z,69.23
2022-07-29T04:21:02.264Z,70.306
2022-07-29T04:28:01.942Z,70.306
2022-07-29T04:35:02.203Z,70.187
2022-07-29T04:42:02.122Z,70.187
2022-07-29T04:49:02.277Z,71.523
2022-07-29T04:56:01.421Z,71.523
2022-07-29T05:00:02.008Z,72.188
2022-07-29T05:07:01.655Z,72.188
2022-07-29T05:14:02.295Z,72.347
2022-07-29T05:21:02.114Z,72.347
2022-07-29T05:28:01.991Z,73.695
2022-07-29T05:35:02.155Z,73.695
2022-07-29T05:42:01.523Z,71.666
2022-07-29T05:49:02.248Z,74.986
2022-07-29T05:56:01.943Z,74.986
2022-07-29T06:00:02.603Z,74.986
2022-07-29T06:07:01.357Z,74.309
2022-07-29T06:14:01.711Z,74.309
2022-07-29T06:21:01.833Z,74.304
2022-07-29T06:28:01.660Z,73.411
2022-07-29T06:35:37.628Z,73.411
2022-07-29T06:42:02.144Z,73.926
2022-07-29T06:49:01.485Z,73.926
2022-07-29T06:56:01.890Z,73.674
2022-07-29T07:00:02.482Z,73.674
2022-07-29T07:07:02.162Z,74.491
2022-07-29T07:14:03.815Z,74.491
2022-07-29T07:21:01.362Z,74.085
2022-07-29T07:28:02.166Z,74.085
2022-07-29T07:35:01.851Z,74.361
2022-07-29T07:42:01.953Z,74.361
2022-07-29T07:49:02.148Z,75.414
2022-07-29T07:56:11.511Z,75.414
2022-07-29T08:00:01.926Z,74.953
2022-07-29T08:07:01.896Z,74.953
2022-07-29T08:14:01.445Z,74.423
2022-07-29T08:21:01.716Z,74.423
2022-07-29T08:28:01.621Z,74.551
2022-07-29T08:35:01.543Z,74.551
2022-07-29T08:42:02.288Z,74.536
2022-07-29T08:49:02.113Z,74.414
2022-07-29T08:56:02.022Z,74.414
2022-07-29T09:00:06.474Z,74.414
2022-07-29T09:07:01.853Z,75.389
2022-07-29T09:14:02.074Z,75.389
2022-07-29T09:21:02.313Z,74.901
2022-07-29T09:28:01.625Z,74.973
2022-07-29T09:35:02.517Z,74.973
2022-07-29T09:42:01.674Z,74.18
2022-07-29T09:49:02.323Z,74.18
2022-07-29T09:56:02.308Z,73.059
2022-07-29T10:00:01.880Z,73.059
2022-07-29T10:07:04.745Z,72.163
2022-07-29T10:14:01.488Z,72.163
2022-07-29T10:21:01.696Z,71.414
2022-07-29T10:28:02.172Z,71.414
2022-07-29T10:35:01.994Z,70.205
2022-07-29T10:42:02.207Z,70.205
2022-07-29T10:49:02.190Z,70.6
2022-07-29T10:56:01.569Z,70.6
2022-07-29T11:00:02.060Z,68.951
2022-07-29T11:07:03.823Z,68.951
2022-07-29T11:14:01.753Z,66.939
2022-07-29T11:21:01.650Z,66.939
2022-07-29T11:28:01.571Z,66.777
2022-07-29T11:35:01.853Z,66.777
2022-07-29T11:42:04.990Z,64.563
2022-07-29T11:49:01.440Z,62.581
2022-07-29T11:56:02.825Z,62.581
2022-07-29T12:00:09.973Z,62.581
2022-07-29T12:07:04.804Z,61.486
2022-07-29T12:14:01.838Z,61.486
2022-07-29T12:21:03.569Z,61.212
2022-07-29T12:28:01.844Z,60.802
2022-07-29T12:35:01.619Z,60.802
2022-07-29T12:42:04.647Z,60.639
2022-07-29T12:49:04.093Z,60.639
2022-07-29T12:56:03.454Z,59.814
2022-07-29T13:00:02.121Z,59.814
2022-07-29T13:07:02.355Z,60.268
2022-07-29T13:14:06.504Z,60.268
2022-07-29T13:21:02.061Z,59.5
2022-07-29T13:28:02.181Z,59.5
2022-07-29T13:35:05.080Z,58.26
2022-07-29T13:42:02.181Z,58.26
2022-07-29T13:49:01.694Z,58.02
2022-07-29T13:56:02.279Z,58.02
2022-07-29T14:00:01.855Z,57.602
2022-07-29T14:07:03.694Z,57.602
2022-07-29T14:14:01.713Z,57.517
2022-07-29T14:21:01.386Z,57.517
2022-07-29T14:28:01.456Z,56.834
2022-07-29T14:35:02.251Z,56.834
2022-07-29T14:42:02.232Z,54.907
2022-07-29T14:49:02.378Z,54.971
2022-07-29T14:56:15.278Z,54.971
2022-07-29T15:00:01.621Z,54.971
2022-07-29T15:07:01.675Z,55.028
2022-07-29T15:14:02.072Z,55.028
2022-07-29T15:21:01.554Z,54.33
2022-07-29T15:28:02.051Z,53.126
2022-07-29T15:35:01.907Z,53.126
2022-07-29T15:42:02.259Z,51.786
2022-07-29T15:49:01.926Z,51.786
2022-07-29T15:56:01.649Z,52.267
2022-07-29T16:00:02.280Z,52.267
2022-07-29T16:07:02.072Z,51.999
2022-07-29T16:14:02.247Z,51.999
2022-07-29T16:21:01.596Z,51.479
2022-07-29T16:28:01.660Z,51.479
2022-07-29T16:35:02.136Z,51.557
2022-07-29T16:42:04.999Z,51.557
2022-07-29T16:49:02.179Z,51.362
2022-07-29T16:56:02.116Z,51.362
2022-07-29T17:00:01.722Z,51.76
2022-07-29T17:07:01.990Z,51.76
2022-07-29T17:14:01.387Z,51.9
2022-07-29T17:21:01.352Z,51.9
2022-07-29T17:28:02.139Z,52.55
2022-07-29T17:35:02.239Z,52.55
2022-07-29T17:42:01.732Z,52.723
2022-07-29T17:49:02.312Z,52.486
2022-07-29T17:56:02.183Z,52.486
2022-07-29T18:00:01.710Z,52.486
2022-07-29T18:07:02.275Z,52.465
2022-07-29T18:14:02.574Z,52.465
2022-07-29T18:21:02.050Z,52.694
2022-07-29T18:28:01.969Z,52.95
2022-07-29T18:35:01.998Z,52.95
2022-07-29T18:42:01.539Z,53.515
2022-07-29T18:49:01.703Z,53.515
2022-07-29T18:56:01.647Z,53.479
2022-07-29T19:00:02.270Z,53.479
2022-07-29T19:07:01.814Z,53.285
2022-07-29T19:14:02.035Z,53.285
2022-07-29T19:21:01.670Z,53.258
2022-07-29T19:28:01.367Z,53.258
2022-07-29T19:35:01.714Z,53.51
2022-07-29T19:42:03.438Z,53.51
2022-07-29T19:49:02.103Z,53.584
2022-07-29T19:56:01.441Z,53.584
2022-07-29T20:00:02.027Z,54.054
2022-07-29T20:07:01.971Z,54.054
2022-07-29T20:14:01.600Z,54.805
2022-07-29T20:21:01.720Z,54.805
2022-07-29T20:28:01.452Z,55.724
2022-07-29T20:35:02.234Z,55.724
2022-07-29T20:42:01.342Z,56.682
2022-07-29T20:49:01.526Z,56.682
2022-07-29T20:56:01.753Z,57.491
2022-07-29T21:00:02.325Z,57.491
2022-07-29T21:07:01.917Z,58.221
2022-07-29T21:14:01.571Z,58.221
2022-07-29T21:21:01.717Z,58.493
2022-07-29T21:28:01.869Z,59.02
2022-07-29T21:35:02.452Z,59.02
2022-07-29T21:42:01.993Z,59.411
2022-07-29T21:49:01.628Z,59.411
2022-07-29T21:56:01.455Z,59.825
2022-07-29T22:00:03.162Z,59.825
2022-07-29T22:07:01.772Z,60.223
2022-07-29T22:14:02.163Z,60.223
2022-07-29T22:21:02.113Z,60.752
2022-07-29T22:28:01.755Z,60.752
2022-07-29T22:35:01.954Z,60.975
2022-07-29T22:42:02.243Z,60.975
2022-07-29T22:49:01.619Z,59.938
2022-07-29T22:56:01.595Z,59.938
2022-07-29T23:00:02.202Z,59.211
2022-07-29T23:07:02.333Z,59.211
2022-07-29T23:14:02.077Z,59.486
2022-07-29T23:21:01.932Z,59.486
2022-07-29T23:28:02.186Z,59.876
2022-07-29T23:35:02.715Z,59.876
2022-07-29T23:42:01.770Z,61.038
2022-07-29T23:49:02.325Z,61.038
2022-07-29T23:56:01.815Z,62.514
